createdAt,value
2022-10-08T00:01:05.870Z,1.17
2022-10-08T00:03:40.866Z,0.88
2022-10-08T00:06:15.777Z,1.00
2022-10-08T00:08:52.896Z,1.38
2022-10-08T00:11:29.942Z,0.98
2022-10-08T00:14:03.794Z,0.95
2022-10-08T00:16:39.242Z,1.88
2022-10-08T00:19:14.291Z,1.13
2022-10-08T00:21:50.929Z,1.10
2022-10-08T00:24:24.499Z,1.17
2022-10-08T00:26:59.503Z,1.10
2022-10-08T00:29:33.490Z,1.23
2022-10-08T00:32:07.121Z,1.25
2022-10-08T00:34:39.987Z,1.42
2022-10-08T00:37:12.825Z,1.38
2022-10-08T00:39:45.652Z,1.60
2022-10-08T00:42:19.835Z,1.42
2022-10-08T00:44:55.884Z,1.15
2022-10-08T00:47:40.992Z,1.50
2022-10-08T00:50:18.300Z,1.15
2022-10-08T00:52:55.666Z,1.40
2022-10-08T00:55:30.202Z,1.70
2022-10-08T00:58:14.887Z,1.35
2022-10-08T01:00:48.566Z,1.52
2022-10-08T01:03:21.496Z,0.98
2022-10-08T01:06:02.301Z,1.52
2022-10-08T01:08:45.578Z,1.35
2022-10-08T01:14:06.671Z,1.00
2022-10-08T01:16:46.668Z,1.40
2022-10-08T01:19:48.616Z,1.60
2022-10-08T01:22:36.050Z,0.98
2022-10-08T01:25:34.273Z,1.50
2022-10-08T01:28:15.950Z,1.42
2022-10-08T01:30:53.271Z,1.55
2022-10-08T01:33:30.702Z,1.40
2022-10-08T01:36:07.081Z,1.83
2022-10-08T01:38:47.067Z,1.25
2022-10-08T01:41:21.740Z,1.60
2022-10-08T01:44:03.018Z,1.42
2022-10-08T01:46:41.086Z,1.30
2022-10-08T01:49:18.457Z,1.75
2022-10-08T01:51:55.981Z,1.58
2022-10-08T01:54:31.357Z,1.60
2022-10-08T01:57:06.827Z,1.27
2022-10-08T01:59:46.322Z,1.80
2022-10-08T02:02:22.726Z,2.38
2022-10-08T02:04:56.949Z,1.75
2022-10-08T02:07:32.967Z,1.38
2022-10-08T02:10:08.890Z,1.90
2022-10-08T02:12:42.717Z,1.90
2022-10-08T02:15:21.082Z,1.90
2022-10-08T02:18:00.114Z,1.58
2022-10-08T02:20:38.163Z,1.38
2022-10-08T02:23:18.280Z,1.60
2022-10-08T02:25:55.629Z,1.00
2022-10-08T02:28:38.166Z,2.03
2022-10-08T02:31:18.828Z,1.95
2022-10-08T02:34:03.960Z,1.50
2022-10-08T02:36:40.189Z,1.75
2022-10-08T02:39:15.799Z,2.15
2022-10-08T02:41:53.109Z,1.40
2022-10-08T02:44:33.121Z,1.92
2022-10-08T02:47:11.358Z,1.75
2022-10-08T02:49:51.159Z,2.05
2022-10-08T02:52:28.163Z,1.55
2022-10-08T02:55:04.100Z,1.67
2022-10-08T02:57:44.094Z,2.33
2022-10-08T03:00:17.346Z,1.83
2022-10-08T03:02:58.778Z,1.63
2022-10-08T03:05:31.971Z,1.55
2022-10-08T03:08:06.410Z,1.23
2022-10-08T03:10:42.346Z,2.17
2022-10-08T03:13:16.121Z,1.75
2022-10-08T03:15:53.832Z,2.28
2022-10-08T03:18:28.658Z,1.58
2022-10-08T03:21:01.577Z,1.70
2022-10-08T03:23:34.561Z,1.60
2022-10-08T03:28:40.611Z,1.40
2022-10-08T03:33:52.022Z,1.55
2022-10-08T03:36:26.319Z,1.60
2022-10-08T03:38:59.349Z,1.42
2022-10-08T03:41:32.469Z,1.83
2022-10-08T03:44:07.915Z,1.35
2022-10-08T03:46:40.863Z,1.65
2022-10-08T03:49:16.470Z,1.50
2022-10-08T03:51:49.384Z,1.38
2022-10-08T03:54:22.272Z,1.08
2022-10-08T03:56:55.218Z,2.10
2022-10-08T03:59:27.960Z,1.45
2022-10-08T04:02:00.663Z,1.88
2022-10-08T04:04:35.283Z,1.42
2022-10-08T04:07:07.953Z,1.50
2022-10-08T04:09:40.972Z,1.30
2022-10-08T04:12:13.807Z,1.55
2022-10-08T04:14:46.529Z,1.02
2022-10-08T04:17:19.414Z,1.70
2022-10-08T04:19:54.456Z,1.10
2022-10-08T04:22:27.198Z,1.73
2022-10-08T04:25:00.113Z,1.42
2022-10-08T04:27:35.736Z,1.23
2022-10-08T04:30:09.681Z,1.33
2022-10-08T04:32:42.549Z,1.42
2022-10-08T04:35:18.059Z,1.73
2022-10-08T04:37:51.088Z,1.50
2022-10-08T04:40:24.045Z,1.73
2022-10-08T04:42:56.759Z,1.08
2022-10-08T04:45:29.560Z,2.22
2022-10-08T04:48:02.451Z,1.77
2022-10-08T04:50:36.743Z,2.33
2022-10-08T04:53:09.640Z,1.02
2022-10-08T04:55:42.401Z,1.60
2022-10-08T04:58:15.214Z,1.35
2022-10-08T05:00:48.016Z,1.60
2022-10-08T05:03:20.927Z,0.88
2022-10-08T05:05:55.715Z,1.40
2022-10-08T05:08:29.533Z,1.27
2022-10-08T05:11:02.314Z,1.27
2022-10-08T05:13:35.653Z,1.50
2022-10-08T05:16:10.262Z,1.35
2022-10-08T05:18:43.409Z,1.05
2022-10-08T05:23:55.670Z,0.93
2022-10-08T05:26:56.127Z,1.10
2022-10-08T05:29:23.502Z,1.05
2022-10-08T05:31:56.245Z,1.17
2022-10-08T05:34:29.042Z,1.30
2022-10-08T05:37:03.364Z,1.13
2022-10-08T05:39:36.385Z,1.00
2022-10-08T05:44:45.424Z,1.52
2022-10-08T05:47:18.632Z,1.25
2022-10-08T05:49:51.418Z,1.35
2022-10-08T05:52:27.248Z,1.85
2022-10-08T05:55:00.446Z,1.20
2022-10-08T06:00:06.913Z,1.55
2022-10-08T06:02:44.159Z,1.00
2022-10-08T06:07:53.186Z,1.27
2022-10-08T06:10:25.964Z,1.70
2022-10-08T06:12:58.715Z,1.10
2022-10-08T06:15:31.424Z,1.42
2022-10-08T06:18:04.276Z,1.77
2022-10-08T06:20:37.625Z,1.38
2022-10-08T06:23:11.943Z,1.13
2022-10-08T06:25:44.804Z,1.08
2022-10-08T06:28:17.862Z,1.65
2022-10-08T06:33:25.384Z,1.40
2022-10-08T06:36:03.024Z,1.80
2022-10-08T06:38:37.173Z,2.13
2022-10-08T06:41:10.453Z,2.05
2022-10-08T06:43:43.195Z,1.83
2022-10-08T06:46:16.722Z,1.92
2022-10-08T06:48:49.654Z,1.75
2022-10-08T06:51:22.347Z,1.38
2022-10-08T06:54:02.793Z,1.20
2022-10-08T06:56:40.117Z,1.15
2022-10-08T06:59:13.214Z,1.55
2022-10-08T07:04:18.541Z,1.20
2022-10-08T07:06:51.317Z,1.42
2022-10-08T07:09:25.461Z,1.40
2022-10-08T07:11:58.152Z,1.38
2022-10-08T07:14:30.945Z,1.20
2022-10-08T07:17:03.663Z,1.05
2022-10-08T07:19:36.492Z,1.08
2022-10-08T07:22:09.460Z,1.20
2022-10-08T07:24:43.538Z,1.73
2022-10-08T07:27:17.170Z,1.38
2022-10-08T07:29:49.867Z,1.65
2022-10-08T07:32:22.712Z,1.50
2022-10-08T07:34:59.281Z,1.20
2022-10-08T07:37:32.944Z,1.60
2022-10-08T07:40:08.198Z,1.10
2022-10-08T07:42:41.342Z,1.30
2022-10-08T07:45:14.836Z,1.25
2022-10-08T07:47:47.813Z,1.48
2022-10-08T07:50:20.542Z,1.15
2022-10-08T07:52:53.375Z,1.48
2022-10-08T07:55:27.456Z,1.20
2022-10-08T07:58:00.147Z,1.48
2022-10-08T08:00:33.230Z,1.65
2022-10-08T08:05:38.735Z,1.37
2022-10-08T08:08:12.303Z,1.17
2022-10-08T08:10:46.872Z,1.42
2022-10-08T08:13:19.687Z,1.40
2022-10-08T08:16:00.495Z,1.42
2022-10-08T08:18:35.336Z,1.20
2022-10-08T08:21:09.944Z,1.08
2022-10-08T08:23:44.810Z,1.27
2022-10-08T08:26:21.370Z,1.67
2022-10-08T08:28:55.650Z,1.33
2022-10-08T08:31:31.173Z,1.52
2022-10-08T08:34:07.027Z,1.52
2022-10-08T08:36:42.949Z,1.38
2022-10-08T08:39:17.602Z,1.05
2022-10-08T08:42:22.010Z,1.58
2022-10-08T08:44:59.607Z,1.10
2022-10-08T08:47:37.357Z,1.38
2022-10-08T08:50:20.374Z,1.58
2022-10-08T08:52:53.247Z,1.27
2022-10-08T08:55:35.458Z,1.98
2022-10-08T08:58:25.643Z,2.08
2022-10-08T09:01:05.417Z,0.90
2022-10-08T09:03:42.417Z,1.45
2022-10-08T09:06:20.054Z,1.73
2022-10-08T09:08:58.070Z,1.63
2022-10-08T09:11:31.370Z,1.42
2022-10-08T09:14:31.259Z,1.27
2022-10-08T09:17:14.662Z,1.30
2022-10-08T09:19:49.530Z,1.05
2022-10-08T09:22:23.941Z,2.00
2022-10-08T09:25:01.011Z,1.40
2022-10-08T09:27:50.307Z,1.33
2022-10-08T09:30:34.413Z,1.70
2022-10-08T09:33:29.435Z,2.03
2022-10-08T09:36:02.162Z,2.13
2022-10-08T09:38:38.058Z,1.15
2022-10-08T09:41:19.567Z,1.75
2022-10-08T09:44:16.004Z,1.55
2022-10-08T09:47:04.796Z,1.60
2022-10-08T09:49:38.826Z,1.20
2022-10-08T09:52:17.338Z,1.10
2022-10-08T09:54:54.363Z,1.52
2022-10-08T09:57:27.550Z,1.15
2022-10-08T10:02:38.347Z,1.15
2022-10-08T10:05:23.722Z,0.93
2022-10-08T10:07:58.504Z,1.20
2022-10-08T10:10:34.742Z,2.38
2022-10-08T10:13:12.324Z,1.48
2022-10-08T10:15:52.120Z,0.90
2022-10-08T10:18:35.956Z,1.38
2022-10-08T10:21:39.613Z,1.30
2022-10-08T10:24:41.798Z,1.55
2022-10-08T10:27:19.532Z,1.30
2022-10-08T10:30:00.737Z,1.20
2022-10-08T10:32:38.862Z,1.20
2022-10-08T10:35:21.123Z,1.30
2022-10-08T10:38:02.564Z,1.55
2022-10-08T10:40:40.684Z,2.22
2022-10-08T10:43:37.095Z,1.50
2022-10-08T10:46:24.215Z,1.38
2022-10-08T10:48:57.610Z,1.67
2022-10-08T10:51:49.336Z,1.50
2022-10-08T10:54:41.171Z,1.92
2022-10-08T10:57:25.142Z,1.35
2022-10-08T11:00:06.001Z,1.20
2022-10-08T11:02:47.182Z,0.95
2022-10-08T11:05:24.670Z,1.30
2022-10-08T11:08:19.361Z,1.40
2022-10-08T11:11:07.100Z,1.60
2022-10-08T11:13:52.919Z,1.05
2022-10-08T11:16:36.718Z,1.70
2022-10-08T11:19:22.112Z,1.95
2022-10-08T11:22:04.481Z,1.50
2022-10-08T11:24:52.899Z,1.30
2022-10-08T11:27:37.854Z,1.63
2022-10-08T11:30:14.479Z,1.48
2022-10-08T11:32:53.740Z,1.00
2022-10-08T11:35:32.312Z,1.38
2022-10-08T11:38:13.736Z,1.30
2022-10-08T11:40:50.509Z,1.02
2022-10-08T11:43:30.990Z,1.55
2022-10-08T11:46:28.776Z,1.20
2022-10-08T11:49:02.546Z,1.52
2022-10-08T11:51:38.986Z,1.63
2022-10-08T11:54:16.408Z,2.25
2022-10-08T11:56:52.938Z,1.40
2022-10-08T11:59:37.462Z,1.50
2022-10-08T12:02:24.901Z,1.63
2022-10-08T12:05:00.619Z,1.35
2022-10-08T12:07:36.817Z,1.80
2022-10-08T12:10:31.133Z,1.70
2022-10-08T12:13:31.268Z,1.63
2022-10-08T12:16:08.369Z,1.88
2022-10-08T12:18:45.491Z,1.52
2022-10-08T12:21:49.988Z,1.42
2022-10-08T12:24:53.176Z,1.38
2022-10-08T12:27:39.243Z,1.08
2022-10-08T12:30:14.177Z,1.35
2022-10-08T12:32:56.209Z,1.80
2022-10-08T12:35:32.428Z,1.52
2022-10-08T12:38:16.232Z,1.85
2022-10-08T12:40:59.164Z,1.50
2022-10-08T12:43:40.786Z,1.77
2022-10-08T12:46:25.764Z,1.23
2022-10-08T12:49:06.072Z,1.60
2022-10-08T12:51:47.695Z,1.73
2022-10-08T12:54:24.655Z,1.70
2022-10-08T12:56:58.631Z,1.30
2022-10-08T12:59:32.537Z,1.38
2022-10-08T13:02:05.441Z,1.67
2022-10-08T13:04:47.348Z,1.23
2022-10-08T13:07:26.382Z,1.50
2022-10-08T13:10:01.449Z,1.75
2022-10-08T13:12:34.259Z,1.52
2022-10-08T13:15:09.192Z,1.13
2022-10-08T13:17:41.979Z,1.25
2022-10-08T13:20:19.970Z,1.17
2022-10-08T13:22:53.163Z,1.50
2022-10-08T13:25:34.500Z,1.65
2022-10-08T13:28:15.224Z,1.52
2022-10-08T13:30:48.485Z,1.60
2022-10-08T13:33:24.667Z,2.15
2022-10-08T13:36:00.938Z,2.03
2022-10-08T13:38:36.896Z,1.67
2022-10-08T13:41:23.485Z,1.27
2022-10-08T13:43:56.810Z,1.23
2022-10-08T13:46:29.511Z,1.30
2022-10-08T13:49:02.357Z,1.98
2022-10-08T13:51:36.410Z,1.75
2022-10-08T13:54:11.019Z,1.63
2022-10-08T13:56:43.714Z,1.20
2022-10-08T13:59:16.629Z,1.02
2022-10-08T14:01:49.869Z,1.48
2022-10-08T14:04:22.692Z,1.17
2022-10-08T14:06:59.155Z,1.55
2022-10-08T14:09:32.368Z,1.00
2022-10-08T14:12:05.476Z,1.83
2022-10-08T14:14:38.169Z,1.17
2022-10-08T14:17:10.821Z,1.40
2022-10-08T14:19:43.655Z,1.65
2022-10-08T14:22:18.330Z,1.13
2022-10-08T14:24:51.321Z,1.00
2022-10-08T14:29:57.043Z,1.13
2022-10-08T14:35:03.012Z,1.25
2022-10-08T14:37:37.054Z,1.20
2022-10-08T14:40:16.034Z,1.60
2022-10-08T14:42:49.117Z,1.50
2022-10-08T14:45:22.852Z,1.25
2022-10-08T14:47:55.767Z,1.13
2022-10-08T14:50:28.474Z,1.77
2022-10-08T14:53:02.469Z,1.60
2022-10-08T14:55:49.357Z,1.30
2022-10-08T14:58:29.218Z,1.20
2022-10-08T15:03:34.965Z,1.40
2022-10-08T15:06:08.217Z,1.73
2022-10-08T15:08:45.153Z,1.10
2022-10-08T15:11:17.803Z,2.15
2022-10-08T15:13:50.955Z,1.95
2022-10-08T15:16:23.695Z,1.35
2022-10-08T15:18:58.112Z,1.15
2022-10-08T15:21:30.745Z,1.30
2022-10-08T15:24:07.795Z,1.50
2022-10-08T15:26:43.207Z,1.20
2022-10-08T15:29:18.868Z,1.42
2022-10-08T15:31:53.966Z,1.17
2022-10-08T15:34:28.574Z,1.20
2022-10-08T15:37:01.230Z,1.15
2022-10-08T15:39:36.134Z,1.30
2022-10-08T15:42:10.549Z,2.00
2022-10-08T15:44:46.266Z,1.25
2022-10-08T15:47:18.963Z,1.90
2022-10-08T15:49:51.870Z,1.20
2022-10-08T15:52:24.539Z,2.13
2022-10-08T15:54:58.497Z,1.25
2022-10-08T15:57:31.406Z,1.40
2022-10-08T16:00:04.448Z,1.33
2022-10-08T16:02:44.648Z,1.17
2022-10-08T16:05:17.583Z,1.48
2022-10-08T16:07:50.783Z,1.05
2022-10-08T16:10:24.897Z,1.10
2022-10-08T16:12:57.629Z,1.13
2022-10-08T16:15:30.372Z,1.27
2022-10-08T16:18:04.073Z,1.85
2022-10-08T16:20:36.862Z,1.00
2022-10-08T16:23:09.610Z,1.10
2022-10-08T16:25:45.580Z,1.45
2022-10-08T16:28:18.480Z,1.20
2022-10-08T16:30:51.218Z,1.27
2022-10-08T16:33:28.537Z,1.30
2022-10-08T16:36:03.322Z,1.30
2022-10-08T16:38:37.932Z,1.00
2022-10-08T16:41:17.095Z,1.10
2022-10-08T16:43:52.303Z,1.02
2022-10-08T16:46:27.500Z,1.35
2022-10-08T16:49:01.934Z,1.58
2022-10-08T16:51:36.867Z,1.58
2022-10-08T16:54:13.511Z,1.45
2022-10-08T16:56:48.099Z,1.30
2022-10-08T16:59:22.662Z,1.50
2022-10-08T17:01:57.502Z,1.30
2022-10-08T17:04:35.343Z,1.27
2022-10-08T17:07:09.044Z,1.15
2022-10-08T17:09:43.253Z,1.00
2022-10-08T17:12:21.823Z,1.15
2022-10-08T17:14:54.834Z,1.52
2022-10-08T17:17:29.163Z,1.65
2022-10-08T17:20:01.880Z,1.08
2022-10-08T17:22:34.664Z,1.10
2022-10-08T17:25:07.992Z,1.25
2022-10-08T17:27:43.270Z,1.23
2022-10-08T17:30:17.778Z,1.10
2022-10-08T17:32:50.569Z,1.60
2022-10-08T17:35:24.104Z,1.30
2022-10-08T17:37:56.792Z,1.38
2022-10-08T17:40:30.592Z,1.30
2022-10-08T17:43:12.431Z,1.35
2022-10-08T17:45:45.385Z,1.40
2022-10-08T17:48:18.275Z,1.27
2022-10-08T17:50:50.921Z,1.23
2022-10-08T17:53:23.770Z,1.70
2022-10-08T17:56:00.714Z,1.55
2022-10-08T17:58:35.465Z,1.70
2022-10-08T18:01:12.208Z,1.60
2022-10-08T18:03:49.959Z,1.40
2022-10-08T18:06:23.620Z,1.50
2022-10-08T18:08:57.321Z,1.23
2022-10-08T18:11:32.025Z,1.45
2022-10-08T18:14:07.261Z,1.40
2022-10-08T18:16:44.266Z,1.40
2022-10-08T18:19:20.353Z,1.17
2022-10-08T18:21:53.226Z,1.67
2022-10-08T18:24:27.054Z,1.05
2022-10-08T18:26:59.859Z,1.63
2022-10-08T18:29:33.952Z,1.75
2022-10-08T18:32:06.699Z,1.60
2022-10-08T18:37:23.957Z,1.63
2022-10-08T18:39:59.957Z,1.70
2022-10-08T18:42:32.831Z,1.33
2022-10-08T18:45:08.451Z,1.65
2022-10-08T18:47:41.273Z,1.45
2022-10-08T18:50:14.451Z,1.50
2022-10-08T18:52:50.313Z,1.60
2022-10-08T18:55:23.375Z,1.55
2022-10-08T19:01:05.148Z,1.38
2022-10-08T19:03:38.408Z,1.27
2022-10-08T19:06:11.874Z,1.77
2022-10-08T19:08:45.261Z,1.80
2022-10-08T19:13:53.788Z,1.77
2022-10-08T19:16:28.763Z,2.20
2022-10-08T19:19:03.791Z,1.80
2022-10-08T19:21:38.737Z,1.80
2022-10-08T19:24:21.474Z,1.65
2022-10-08T19:26:56.266Z,1.80
2022-10-08T19:29:33.679Z,1.60
2022-10-08T19:32:08.180Z,1.60
2022-10-08T19:34:41.711Z,1.75
2022-10-08T19:37:15.234Z,1.67
2022-10-08T19:39:48.757Z,1.55
2022-10-08T19:42:22.574Z,1.83
2022-10-08T19:44:55.440Z,1.40
2022-10-08T19:47:29.517Z,1.95
2022-10-08T19:50:02.423Z,1.88
2022-10-08T19:52:35.558Z,2.45
2022-10-08T19:57:41.502Z,2.38
2022-10-08T20:00:16.822Z,2.75
2022-10-08T20:02:51.723Z,2.33
2022-10-08T20:05:25.035Z,2.38
2022-10-08T20:10:33.688Z,2.17
2022-10-08T20:13:07.057Z,2.60
2022-10-08T20:15:41.734Z,2.00
2022-10-08T20:18:16.310Z,2.30
2022-10-08T20:20:49.072Z,2.00
2022-10-08T20:23:22.101Z,2.00
2022-10-08T20:25:55.250Z,2.40
2022-10-08T20:28:28.966Z,2.25
2022-10-08T20:31:09.361Z,2.50
2022-10-08T20:33:44.622Z,1.90
2022-10-08T20:36:18.420Z,2.10
2022-10-08T20:38:52.150Z,1.70
2022-10-08T20:41:30.612Z,1.95
2022-10-08T20:44:05.989Z,2.13
2022-10-08T20:46:39.279Z,1.83
2022-10-08T20:49:14.292Z,2.17
2022-10-08T20:51:47.150Z,2.00
2022-10-08T20:54:20.692Z,2.00
2022-10-08T20:56:53.555Z,1.83
2022-10-08T20:59:26.704Z,1.98
2022-10-08T21:01:59.759Z,2.10
2022-10-08T21:04:34.094Z,1.60
2022-10-08T21:07:06.833Z,2.60
2022-10-08T21:09:40.029Z,2.03
2022-10-08T21:14:45.368Z,2.08
2022-10-08T21:17:18.132Z,1.83
2022-10-08T21:19:52.281Z,2.10
2022-10-08T21:22:25.156Z,1.70
2022-10-08T21:24:57.881Z,1.67
2022-10-08T21:27:30.968Z,2.17
2022-10-08T21:32:36.656Z,1.90
2022-10-08T21:35:11.140Z,2.97
2022-10-08T21:37:43.984Z,1.90
2022-10-08T21:42:50.284Z,2.10
2022-10-08T21:45:24.024Z,2.25
2022-10-08T21:47:56.921Z,2.03
2022-10-08T21:50:35.272Z,2.15
2022-10-08T21:53:08.828Z,2.30
2022-10-08T21:55:41.812Z,2.90
2022-10-08T22:00:47.409Z,2.63
2022-10-08T22:03:20.388Z,3.35
2022-10-08T22:05:56.965Z,3.17
2022-10-08T22:08:31.960Z,2.80
2022-10-08T22:11:06.600Z,3.00
2022-10-08T22:13:39.609Z,2.78
2022-10-08T22:21:23.165Z,2.22
2022-10-08T22:23:56.104Z,2.58
2022-10-08T22:26:30.988Z,2.65
2022-10-08T22:29:04.434Z,2.78
2022-10-08T22:31:38.111Z,2.95
2022-10-08T22:34:11.503Z,2.05
2022-10-08T22:36:45.996Z,3.00
2022-10-08T22:39:18.849Z,2.10
2022-10-08T22:41:51.479Z,2.72
2022-10-08T22:44:24.204Z,2.78
2022-10-08T22:46:57.258Z,2.90
2022-10-08T22:49:30.112Z,2.72
2022-10-08T22:52:04.370Z,2.45
2022-10-08T22:54:37.337Z,2.70
2022-10-08T22:57:10.189Z,3.00
2022-10-08T22:59:42.916Z,3.00
2022-10-08T23:02:15.680Z,3.03
2022-10-08T23:04:48.446Z,2.60
2022-10-08T23:07:22.833Z,2.83
2022-10-08T23:09:55.692Z,3.75
2022-10-08T23:12:28.971Z,2.90
2022-10-08T23:15:01.677Z,2.60
2022-10-08T23:17:34.615Z,2.47
2022-10-08T23:22:41.738Z,2.75
2022-10-08T23:25:14.521Z,2.92
2022-10-08T23:27:47.419Z,2.50
2022-10-08T23:30:41.542Z,3.05
2022-10-08T23:33:14.592Z,2.85
2022-10-08T23:35:55.472Z,2.80
2022-10-08T23:38:29.743Z,2.00
2022-10-08T23:41:03.552Z,2.42
2022-10-08T23:43:37.889Z,2.17
2022-10-08T23:46:13.215Z,2.70
2022-10-08T23:48:47.146Z,2.40
2022-10-08T23:51:21.277Z,2.35
2022-10-08T23:53:56.152Z,2.00
2022-10-08T23:56:29.331Z,2.60
2022-10-08T23:59:02.145Z,1.77
